Time;durP1;ratioP1;P1;durP2;ratioP2;P2;SDS_P1;SDS_P2;PMS_P1;PMS_P2;Temp;Humidity;BMP_temperature;BMP_pressure;BME280_temperature;BME280_humidity;BME280_pressure;Samples;Min_cycle;Max_cycle;Signal;HPM_P1;HPM_P2
2024/02/29 00:04:38;;;;;;;23.40;11.00;;;;;;;5.48;92.59;100967.41;122646;1296;114935;-66
2024/02/29 00:08:39;;;;;;;17.40;10.50;;;;;;;5.48;92.62;100959.97;125064;1318;114978;-65
2024/02/29 00:12:38;;;;;;;;;;;;;;;;;;;;;
2024/02/29 00:16:39;;;;;;;19.50;9.80;;;;;;;5.51;92.56;100963.65;124433;1309;129630;-67
2024/02/29 00:20:31;;;;;;;20.40;10.40;;;;;;;5.53;92.67;100959.90;124303;1315;114903;-67
2024/02/29 00:29:05;;;;;;;20.00;10.00;;;;;;;5.53;92.38;100960.27;126114;1300;638679;-66
2024/02/29 00:33:08;;;;;;;20.30;9.80;;;;;;;5.53;92.61;100960.25;128257;1281;129123;-66
2024/02/29 00:37:10;;;;;;;17.90;9.00;;;;;;;5.48;92.08;100956.07;126881;1292;114933;-66
2024/02/29 00:41:14;;;;;;;23.80;12.00;;;;;;;5.45;92.34;100955.08;122339;1298;5416543;-66
2024/02/29 00:45:14;;;;;;;23.90;11.70;;;;;;;5.44;92.38;100953.50;125024;1311;114985;-67
2024/02/29 00:53:32;;;;;;;21.20;11.40;;;;;;;5.44;92.24;100944.64;125632;1303;638794;-65
2024/02/29 00:57:34;;;;;;;21.30;11.10;;;;;;;5.39;92.22;100943.29;128816;1277;128911;-67
2024/02/29 01:01:35;;;;;;;23.50;11.00;;;;;;;5.38;92.20;100941.02;127275;1287;114962;-66
2024/02/29 01:05:43;;;;;;;21.30;11.20;;;;;;;5.37;92.16;100936.09;122798;1295;5409272;-66
2024/02/29 01:09:45;;;;;;;25.20;11.80;;;;;;;5.35;92.31;100938.07;125620;1323;116453;-66
2024/02/29 01:13:44;;;;;;;;;;;;;;;;;;;;;
2024/02/29 01:18:05;;;;;;;26.30;11.90;;;;;;;5.32;92.36;100937.77;125904;1300;637011;-66
2024/02/29 01:22:04;;;;;;;;;;;;;;;;;;;;;
2024/02/29 01:26:05;;;;;;;23.90;11.40;;;;;;;5.25;92.51;100930.80;126645;1295;114932;-67
2024/02/29 01:29:59;;;;;;;20.20;10.50;;;;;;;5.26;92.65;100922.27;121682;1305;5420588;-66
2024/02/29 01:33:43;;;;;;;;;;;;;;;;;;;;;
2024/02/29 01:41:55;;;;;;;27.40;12.20;;;;;;;5.15;92.66;100919.27;125208;1320;128589;-66
2024/02/29 02:00:49;;;;;;;26.00;14.20;;;;;;;5.70;92.22;100915.45;126633;1292;655219;-65
2024/02/29 02:04:51;;;;;;;33.70;15.30;;;;;;;5.76;92.20;100908.61;124289;1276;5363444;-66
2024/02/29 02:08:52;;;;;;;27.40;14.90;;;;;;;5.69;92.25;100910.88;126508;1310;115003;-66
2024/02/29 02:12:52;;;;;;;;;;;;;;;;;;;;;
2024/02/29 02:16:52;;;;;;;;;;;;;;;;;;;;;
2024/02/29 02:25:15;;;;;;;;;;;;;;;;;;;;;
2024/02/29 02:29:19;;;;;;;31.20;14.60;;;;;;;5.30;92.92;100895.46;128553;1273;127852;-67
2024/02/29 02:33:21;;;;;;;33.50;15.20;;;;;;;5.30;93.18;100888.90;127008;1291;114847;-66
2024/02/29 02:41:22;;;;;;;;;;;;;;;;;;;;;
2024/02/29 02:49:49;;;;;;;;;;;;;;;;;;;;;
2024/02/29 02:53:52;;;;;;;28.20;12.80;;;;;;;5.26;93.51;100877.13;127338;1287;128043;-66
2024/02/29 02:57:56;;;;;;;24.60;12.90;;;;;;;5.21;93.30;100872.41;126205;1296;114796;-67
2024/02/29 03:01:57;;;;;;;35.50;16.00;;;;;;;5.17;93.55;100871.08;121823;1298;5418719;-66
2024/02/29 03:10:30;;;;;;;42.60;16.60;;;;;;;5.14;93.78;100866.01;126362;1296;637602;-66
2024/02/29 03:14:32;;;;;;;31.80;16.20;;;;;;;5.10;93.94;100865.55;128043;1283;128044;-66
2024/02/29 03:18:34;;;;;;;33.60;15.70;;;;;;;5.08;93.96;100864.52;127100;1308;114884;-68
2024/02/29 03:22:35;;;;;;;38.40;15.40;;;;;;;5.05;94.24;100858.20;121922;1300;5415322;-66
2024/02/29 03:31:09;;;;;;;35.50;16.50;;;;;;;5.04;94.36;100855.92;125627;1304;637253;-66
2024/02/29 03:35:09;;;;;;;;;;;;;;;;;;;;;
2024/02/29 03:39:12;;;;;;;29.60;14.30;;;;;;;4.98;94.62;100856.00;127412;1283;114936;-66
2024/02/29 03:43:03;;;;;;;31.90;15.90;;;;;;;4.98;94.68;100848.93;122262;1298;5404484;-66
2024/02/29 03:47:05;;;;;;;31.50;15.20;;;;;;;5.00;94.58;100842.89;125658;1307;114836;-66
2024/02/29 03:55:31;;;;;;;32.70;15.80;;;;;;;5.07;95.08;100839.21;126036;1315;638760;-66
2024/02/29 03:59:31;;;;;;;29.50;14.90;;;;;;;5.07;95.12;100837.62;126992;1294;127672;-66
2024/02/29 04:03:38;;;;;;;28.90;15.10;;;;;;;5.05;95.05;100838.55;128069;1290;115081;-66
2024/02/29 04:08:11;;;;;;;37.00;17.10;;;;;;;5.03;95.07;100835.75;123799;1286;5424462;-66
2024/02/29 04:11:46;;;;;;;26.40;11.90;;;;;;;5.05;95.26;100832.33;126193;1315;114805;-66
2024/02/29 04:15:40;;;;;;;35.10;15.10;;;;;;;5.06;95.55;100827.54;125818;1310;114804;-66
2024/02/29 04:24:14;;;;;;;30.90;13.50;;;;;;;5.13;95.42;100819.80;125611;1303;638589;-67
2024/02/29 04:36:20;;;;;;;30.10;13.50;;;;;;;5.04;95.70;100814.86;123243;1287;5493087;-66
2024/02/29 04:40:22;;;;;;;23.20;9.80;;;;;;;5.01;95.96;100813.64;125738;1304;114937;-65
2024/02/29 04:44:23;;;;;;;29.80;13.60;;;;;;;4.95;95.98;100819.24;125155;1308;114898;-67
2024/02/29 04:52:32;;;;;;;37.80;16.40;;;;;;;4.95;96.14;100813.23;125833;1298;636910;-66
2024/02/29 04:56:35;;;;;;;36.00;16.60;;;;;;;4.92;96.03;100810.63;127728;1284;128912;-66
2024/02/29 05:00:37;;;;;;;38.90;16.70;;;;;;;4.94;96.23;100811.14;128038;1302;114935;-66
2024/02/29 05:04:24;;;;;;;38.90;16.70;;;;;;;4.95;96.45;100804.73;123316;1287;5405189;-66
2024/02/29 05:12:27;;;;;;;38.40;16.60;;;;;;;5.01;96.62;100800.91;124781;1329;114887;-65
2024/02/29 05:16:20;;;;;;;;;;;;;;;;;;;;;
2024/02/29 05:20:54;;;;;;;46.10;17.50;;;;;;;5.14;96.62;100804.19;125701;1305;640108;-65
2024/02/29 05:24:55;;;;;;;;;;;;;;;;;;;;;
2024/02/29 05:28:57;;;;;;;;;;;;;;;;;;;;;
2024/02/29 05:32:48;;;;;;;;;;;;;;;;;;;;;
2024/02/29 05:36:57;;;;;;;;;;;;;;;;;;;;;
2024/02/29 05:41:02;;;;;;;36.70;14.90;;;;;;;5.11;96.83;100803.55;129270;1268;128513;-66
2024/02/29 05:45:06;;;;;;;25.00;10.70;;;;;;;5.11;96.99;100802.86;128630;1276;114822;-66
2024/02/29 05:49:07;;;;;;;34.10;14.90;;;;;;;5.11;96.95;100805.16;124366;1280;5364430;-67
2024/02/29 05:52:58;;;;;;;;;;;;;;;;;;;;;
2024/02/29 05:56:33;;;;;;;;;;;;;;;5.11;97.23;100801.62;125944;1297;114949;-66
2024/02/29 06:00:25;;;;;;;32.50;13.50;;;;;;;5.13;97.19;100802.29;126117;1309;114897;-67
2024/02/29 06:04:06;;;;;;;;;;;;;;;5.17;97.48;100803.98;125677;1302;130032;-66
2024/02/29 06:12:52;;;;;;;38.70;15.40;;;;;;;5.23;97.43;100807.41;125712;1313;638445;-66
2024/02/29 06:16:29;;;;;;;37.00;15.40;;;;;;;5.22;97.33;100807.77;127823;1294;128800;-67
2024/02/29 06:20:29;;;;;;;;;;;;;;;;;;;;;
2024/02/29 06:24:33;;;;;;;38.10;13.80;;;;;;;5.26;97.59;100814.07;122339;1296;5411097;-68
2024/02/29 06:28:32;;;;;;;;;;;;;;;;;;;;;
2024/02/29 06:37:08;;;;;;;37.80;15.70;;;;;;;5.42;97.92;100812.52;125567;1304;638652;-67
2024/02/29 06:45:08;;;;;;;;;;;;;;;;;;;;;
2024/02/29 06:49:57;;;;;;;33.80;13.60;;;;;;;5.49;97.88;100802.64;125767;1299;639605;-66
2024/02/29 06:53:49;;;;;;;21.70;9.40;;;;;;;5.54;98.02;100809.80;128398;1278;128702;-65
2024/02/29 06:57:51;;;;;;;;;;;;;;;;;;;;;
2024/02/29 07:01:44;;;;;;;30.40;13.30;;;;;;;5.54;98.09;100800.40;122926;1289;5413984;-66
2024/02/29 07:09:34;;;;;;;22.80;11.10;;;;;;;5.68;98.41;100788.61;125043;1326;114982;-66
2024/02/29 07:13:32;;;;;;;30.10;12.50;;;;;;;5.75;98.32;100790.40;124969;1304;129896;-67
2024/02/29 07:17:22;;;;;;;5.40;3.00;;;;;;;5.82;98.38;100793.61;124621;1315;115159;-67
2024/02/29 07:25:57;;;;;;;39.40;16.70;;;;;;;5.92;98.25;100789.33;125802;1305;638135;-66
2024/02/29 07:33:58;;;;;;;;;;;;;;;;;;;;;
2024/02/29 07:38:01;;;;;;;25.50;11.50;;;;;;;6.09;97.76;100785.79;121159;1313;5229417;-67
2024/02/29 07:46:25;;;;;;;;;;;;;;;;;;;;;
2024/02/29 07:50:29;;;;;;;29.10;13.60;;;;;;;6.16;97.86;100783.33;127126;1289;128696;-65
2024/02/29 07:54:31;;;;;;;37.40;15.70;;;;;;;6.21;97.97;100781.95;126804;1295;114888;-66
2024/02/29 07:58:30;;;;;;;26.30;12.20;;;;;;;6.29;98.18;100781.06;122156;1301;5397760;-67
2024/02/29 08:02:30;;;;;;;33.40;15.80;;;;;;;6.36;98.10;100782.85;125292;1307;114948;-65
2024/02/29 08:06:34;;;;;;;10.00;5.00;;;;;;;6.45;98.22;100782.10;125060;1310;115128;-67
2024/02/29 08:15:01;;;;;;;31.60;15.30;;;;;;;6.56;97.71;100780.74;125837;1301;639757;-68
2024/02/29 08:19:04;;;;;;;38.70;16.10;;;;;;;6.57;97.66;100778.96;128650;1277;128637;-67
2024/02/29 08:22:58;;;;;;;;;;;;;;;;;;;;;
2024/02/29 08:31:01;;;;;;;36.90;15.40;;;;;;;6.69;97.60;100771.91;124655;1313;114995;-66
2024/02/29 08:39:35;;;;;;;33.80;14.50;;;;;;;6.90;97.84;100754.13;125630;1303;638732;-67
2024/02/29 08:43:40;;;;;;;27.00;13.70;;;;;;;6.99;97.70;100752.46;126678;1293;128521;-66
2024/02/29 08:47:39;;;;;;;30.60;14.40;;;;;;;7.08;97.30;100757.21;125996;1299;114987;-66
2024/02/29 08:56:13;;;;;;;24.70;12.10;;;;;;;7.11;97.08;100746.30;126055;1302;639378;-65
2024/02/29 09:00:16;;;;;;;37.60;15.40;;;;;;;7.12;97.08;100745.55;128348;1274;130783;-66
2024/02/29 09:04:02;;;;;;;44.20;17.20;;;;;;;7.19;96.97;100738.08;127546;1287;114776;-65
2024/02/29 09:08:04;;;;;;;;;;;;;;;;;;;;;
2024/02/29 09:12:07;;;;;;;30.70;13.20;;;;;;;7.29;97.05;100730.48;126104;1302;114898;-66
2024/02/29 09:16:08;;;;;;;32.50;13.80;;;;;;;7.40;97.09;100723.95;125489;1307;114942;-66
2024/02/29 09:20:04;;;;;;;41.30;18.60;;;;;;;7.44;96.83;100721.17;124912;1310;128022;-67
2024/02/29 09:28:35;;;;;;;35.10;16.00;;;;;;;7.64;96.84;100712.21;125844;1305;639168;-66
2024/02/29 09:32:36;;;;;;;40.80;15.90;;;;;;;7.70;96.46;100708.30;128607;1277;127824;-66
2024/02/29 09:36:39;;;;;;;26.20;11.70;;;;;;;7.77;96.39;100706.84;126953;1286;114955;-67
2024/02/29 09:40:39;;;;;;;38.80;14.30;;;;;;;7.83;96.22;100699.91;121767;1305;5424617;-66
2024/02/29 09:44:32;;;;;;;;;;;;;;;;;;;;;
2024/02/29 09:53:09;;;;;;;37.20;14.40;;;;;;;7.97;95.84;100693.41;125705;1303;637970;-65
2024/02/29 09:57:04;;;;;;;27.10;12.30;;;;;;;8.00;96.17;100693.85;128158;1280;128973;-66
2024/02/29 10:01:06;;;;;;;32.50;14.70;;;;;;;8.06;95.73;100689.02;127538;1286;114877;-66
2024/02/29 10:05:10;;;;;;;29.30;10.90;;;;;;;8.12;95.85;100687.76;122515;1296;5423270;-66
2024/02/29 10:08:32;;;;;;;36.40;15.80;;;;;;;8.13;95.77;100684.70;125505;1305;115017;-66
2024/02/29 10:12:34;;;;;;;32.30;13.80;;;;;;;8.19;95.62;100682.20;125024;1305;115063;-65
2024/02/29 10:21:09;;;;;;;31.90;14.00;;;;;;;8.31;95.43;100671.10;125908;1299;640886;-65
2024/02/29 10:25:02;;;;;;;35.90;15.50;;;;;;;8.36;94.97;100668.98;128291;1275;127641;-67
2024/02/29 10:29:04;;;;;;;;;;;;;;;;;;;;;
2024/02/29 10:33:08;;;;;;;34.50;13.40;;;;;;;8.45;94.92;100664.93;122899;1287;5412349;-66
2024/02/29 10:36:56;;;;;;;38.00;15.10;;;;;;;8.51;95.16;100657.30;126612;1312;114882;-66
2024/02/29 10:40:56;;;;;;;26.60;10.60;;;;;;;8.55;94.80;100652.70;126062;1318;114945;-66
2024/02/29 10:45:01;;;;;;;35.70;15.40;;;;;;;8.61;94.86;100648.56;125184;1325;114974;-66
2024/02/29 10:49:08;;;;;;;39.50;16.70;;;;;;;8.68;94.64;100634.98;124894;1329;130027;-66
2024/02/29 10:53:09;;;;;;;39.80;15.30;;;;;;;8.75;94.85;100624.73;124944;1310;114939;-66
2024/02/29 10:57:11;;;;;;;;;;;;;;;;;;;;;
2024/02/29 11:02:05;;;;;;;35.70;16.20;;;;;;;9.00;94.72;100610.81;125926;1301;652144;-67
2024/02/29 11:06:07;;;;;;;33.80;15.20;;;;;;;9.09;94.11;100606.91;127632;1285;127006;-66
2024/02/29 11:10:04;;;;;;;31.60;15.30;;;;;;;9.14;93.89;100602.25;126085;1297;114890;-66
2024/02/29 11:14:08;;;;;;;34.60;15.90;;;;;;;9.22;93.91;100588.77;122160;1298;5441908;-67
2024/02/29 11:18:11;;;;;;;30.20;13.70;;;;;;;9.30;93.51;100588.28;125097;1310;114905;-67
2024/02/29 11:22:10;;;;;;;;;;;;;;;;;;;;;
2024/02/29 11:26:47;;;;;;;25.10;12.10;;;;;;;9.34;93.11;100582.43;125852;1302;638046;-67
2024/02/29 11:30:51;;;;;;;34.50;14.90;;;;;;;9.45;93.37;100576.08;127965;1284;126999;-66
2024/02/29 11:34:53;;;;;;;36.70;15.20;;;;;;;9.52;92.73;100570.83;126100;1298;114869;-67
2024/02/29 11:43:19;;;;;;;39.30;18.00;;;;;;;9.55;92.31;100553.05;125993;1296;637445;-68
2024/02/29 11:47:27;;;;;;;35.00;16.40;;;;;;;9.54;92.47;100550.41;127971;1284;128956;-67
2024/02/29 11:59:35;;;;;;;37.30;16.10;;;;;;;9.51;92.30;100529.48;125133;1308;114980;-67
2024/02/29 12:03:36;;;;;;;24.00;11.50;;;;;;;9.53;92.24;100521.01;124846;1308;114977;-67
2024/02/29 12:12:04;;;;;;;33.80;17.20;;;;;;;9.63;92.47;100513.32;125931;1299;637828;-67
2024/02/29 12:16:06;;;;;;;39.20;18.00;;;;;;;9.72;92.61;100503.48;128381;1289;129037;-68
2024/02/29 12:20:10;;;;;;;35.90;14.40;;;;;;;9.80;92.22;100492.61;128688;1279;114984;-67
2024/02/29 12:24:11;;;;;;;36.20;15.20;;;;;;;9.84;92.10;100492.77;123280;1298;5428305;-67
2024/02/29 12:28:05;;;;;;;;;;;;;;;;;;;;;
2024/02/29 12:36:31;;;;;;;;;;;;;;;;;;;;;
2024/02/29 12:40:38;;;;;;;38.10;18.40;;;;;;;10.28;91.83;100484.08;127059;1293;127023;-68
2024/02/29 12:44:38;;;;;;;;;;;;;;;;;;;;;
2024/02/29 12:48:40;;;;;;;33.20;16.90;;;;;;;10.42;91.32;100470.08;122763;1289;5409822;-66
2024/02/29 12:52:41;;;;;;;40.30;18.90;;;;;;;10.49;91.50;100465.28;125906;1306;114887;-67
2024/02/29 12:56:33;;;;;;;43.30;21.20;;;;;;;10.61;91.23;100457.24;125624;1301;114906;-67
2024/02/29 13:04:37;;;;;;;39.00;19.80;;;;;;;10.66;90.66;100444.31;124278;1314;129926;-67
2024/02/29 13:13:16;;;;;;;33.70;16.60;;;;;;;10.71;90.58;100434.09;125517;1301;641778;-67
2024/02/29 13:17:19;;;;;;;41.70;19.70;;;;;;;10.67;90.16;100432.34;128281;1299;128205;-66
2024/02/29 13:21:21;;;;;;;34.30;16.90;;;;;;;10.67;90.49;100429.80;127579;1287;115037;-66
2024/02/29 13:25:20;;;;;;;;;;;;;;;;;;;;;
2024/02/29 13:29:32;;;;;;;;;;;;;;;;;;;;;
2024/02/29 13:37:58;;;;;;;41.70;20.00;;;;;;;10.71;89.87;100416.05;125921;1298;638669;-67
2024/02/29 13:42:05;;;;;;;42.70;19.60;;;;;;;10.68;89.83;100411.71;127689;1284;129099;-68
2024/02/29 13:46:04;;;;;;;39.80;20.10;;;;;;;10.58;89.63;100414.15;126210;1299;115132;-67
2024/02/29 13:50:05;;;;;;;44.80;21.50;;;;;;;10.52;89.52;100410.35;121287;1307;5438277;-70
2024/02/29 13:54:06;;;;;;;41.00;19.40;;;;;;;10.49;89.55;100406.89;124780;1324;114875;-70
2024/02/29 14:02:39;;;;;;;44.20;21.10;;;;;;;10.53;89.61;100394.74;125816;1297;640696;-68
2024/02/29 14:06:41;;;;;;;39.50;19.90;;;;;;;10.51;89.72;100389.88;127954;1299;128563;-67
2024/02/29 14:10:44;;;;;;;45.00;20.10;;;;;;;10.51;89.50;100384.13;127485;1305;114817;-68
2024/02/29 14:14:38;;;;;;;;;;;;;;;;;;;;;
2024/02/29 14:18:37;;;;;;;;;;;;;;;;;;;;;
2024/02/29 14:30:43;;;;;;;;;;;;;;;;;;;;;
2024/02/29 14:34:47;;;;;;;45.40;20.60;;;;;;;10.52;89.67;100348.73;127851;1286;127918;-68
2024/02/29 14:38:37;;;;;;;48.10;24.40;;;;;;;10.50;89.76;100345.42;127257;1289;114922;-68
2024/02/29 14:42:37;;;;;;;;;;;;;;;;;;;;;
2024/02/29 14:46:39;;;;;;;49.30;23.80;;;;;;;10.52;89.77;100331.95;126104;1317;114978;-68
2024/02/29 14:50:38;;;;;;;;;;;;;;;;;;;;;
2024/02/29 14:55:13;;;;;;;42.20;21.40;;;;;;;10.58;89.46;100319.31;125728;1297;635637;-69
2024/02/29 14:59:15;;;;;;;44.70;20.20;;;;;;;10.56;89.33;100313.88;127591;1297;127793;-68
2024/02/29 15:07:22;;;;;;;42.10;19.30;;;;;;;10.58;89.30;100297.38;122018;1302;5419154;-68
2024/02/29 15:11:11;;;;;;;;;;;;;;;;;;;;;
2024/02/29 15:19:40;;;;;;;;;;;;;;;;;;;;;
2024/02/29 15:23:44;;;;;;;52.20;24.30;;;;;;;10.51;89.75;100288.79;127210;1280;127961;-68
2024/02/29 15:27:53;;;;;;;45.00;24.80;;;;;;;10.52;89.49;100281.95;127632;1286;114770;-69
2024/02/29 15:31:45;;;;;;;;;;;;;;;;;;;;;
2024/02/29 15:35:48;;;;;;;48.60;22.40;;;;;;;10.37;89.68;100287.64;126604;1293;114963;-69
2024/02/29 15:39:49;;;;;;;48.00;22.30;;;;;;;10.36;90.24;100289.46;125665;1321;114888;-69
2024/02/29 15:48:24;;;;;;;51.40;23.40;;;;;;;10.34;90.09;100288.33;125777;1297;636347;-69
2024/02/29 15:52:28;;;;;;;49.20;23.00;;;;;;;10.28;90.26;100286.30;128183;1280;128469;-68
2024/02/29 15:56:14;;;;;;;48.10;24.00;;;;;;;10.24;90.45;100277.73;126618;1311;114965;-68
2024/02/29 16:00:19;;;;;;;41.30;20.30;;;;;;;10.22;90.34;100269.98;122116;1300;5422361;-69
2024/02/29 16:08:18;;;;;;;;;;;;;;;;;;;;;
2024/02/29 16:12:53;;;;;;;51.10;22.80;;;;;;;10.09;90.59;100265.27;125724;1301;637021;-69
2024/02/29 16:16:55;;;;;;;51.50;23.00;;;;;;;10.00;90.49;100261.39;126804;1291;128858;-69
2024/02/29 16:28:52;;;;;;;;;;;;;;;;;;;;;
2024/02/29 16:37:20;;;;;;;52.80;26.30;;;;;;;9.84;91.18;100246.81;125634;1306;635174;-64
2024/02/29 16:41:22;;;;;;;49.40;24.20;;;;;;;9.78;91.22;100245.11;128251;1280;128299;-67
2024/02/29 16:45:23;;;;;;;41.30;19.60;;;;;;;9.76;91.48;100245.39;127566;1294;114843;-66
2024/02/29 16:49:26;;;;;;;46.90;22.10;;;;;;;9.73;91.65;100243.41;122765;1295;5435825;-66
2024/02/29 16:53:27;;;;;;;47.60;23.10;;;;;;;9.70;91.58;100235.34;126323;1314;114881;-65
2024/02/29 16:57:27;;;;;;;33.50;16.30;;;;;;;9.67;91.72;100232.62;125145;1326;114782;-65
2024/02/29 17:05:55;;;;;;;56.30;26.80;;;;;;;9.62;91.90;100226.61;126337;1296;639592;-66
2024/02/29 17:09:59;;;;;;;63.90;27.40;;;;;;;9.58;92.09;100221.25;128505;1281;127861;-66
2024/02/29 17:14:01;;;;;;;62.60;27.90;;;;;;;9.57;92.15;100217.91;127237;1290;114952;-68
2024/02/29 17:18:01;;;;;;;58.60;26.90;;;;;;;9.55;92.14;100220.89;121898;1298;5451391;-66
2024/02/29 17:21:59;;;;;;;;;;;;;;;;;;;;;
2024/02/29 17:25:14;;;;;;;53.40;21.60;;;;;;;9.39;91.99;100216.42;124396;1308;114949;-67
2024/02/29 17:33:44;;;;;;;56.50;25.70;;;;;;;9.27;92.51;100209.50;125995;1302;638527;-70
2024/02/29 17:45:47;;;;;;;;;;;;;;;;;;;;;
2024/02/29 17:54:23;;;;;;;83.90;46.60;;;;;;;8.72;92.74;100188.05;125861;1304;640232;-69
2024/02/29 18:03:02;;;;;;;76.00;43.00;;;;;;;8.52;92.92;100178.42;125840;1299;638450;-69
2024/02/29 18:15:08;;;;;;;64.00;29.80;;;;;;;8.21;93.63;100171.33;121800;1299;5494047;-71
2024/02/29 18:19:00;;;;;;;74.00;32.50;;;;;;;8.13;93.68;100169.71;124788;1326;115011;-69
2024/02/29 18:22:44;;;;;;;70.60;32.20;;;;;;;8.05;93.69;100162.74;123821;1316;114967;-68
2024/02/29 18:31:19;;;;;;;66.50;31.80;;;;;;;7.93;93.89;100153.63;125630;1301;637030;-69
2024/02/29 18:35:20;;;;;;;67.40;30.50;;;;;;;7.82;94.26;100146.78;126933;1298;128967;-70
2024/02/29 18:39:22;;;;;;;101.00;48.90;;;;;;;7.75;94.34;100144.39;125862;1302;115125;-71
2024/02/29 18:47:17;;;;;;;69.70;35.10;;;;;;;7.65;94.80;100144.45;125558;1300;637580;-70
2024/02/29 18:51:08;;;;;;;;;;;;;;;;;;;;;
2024/02/29 18:55:03;;;;;;;;;;;;;;;;;;;;;
2024/02/29 18:58:56;;;;;;;;;;;;;;;;;;;;;
2024/02/29 19:03:01;;;;;;;;;;;;;;;;;;;;;
2024/02/29 19:15:41;;;;;;;76.80;34.10;;;;;;;7.37;95.55;100120.13;125734;1303;637154;-70
2024/02/29 19:23:45;;;;;;;84.30;38.50;;;;;;;7.23;95.60;100113.55;127507;1287;114933;-68
2024/02/29 19:27:49;;;;;;;76.50;34.00;;;;;;;7.18;95.81;100103.48;122792;1293;5442773;-70
2024/02/29 19:31:42;;;;;;;;;;;;;;;;;;;;;
2024/02/29 19:36:07;;;;;;;;;;;;;;;;;;;;;
2024/02/29 19:40:04;;;;;;;66.00;30.90;;;;;;;7.06;96.75;100094.86;127899;1303;127691;-69
2024/02/29 19:44:06;;;;;;;75.60;37.80;;;;;;;7.02;96.90;100087.17;126952;1290;114838;-72
2024/02/29 19:47:52;;;;;;;73.30;37.60;;;;;;;6.98;96.67;100083.23;123959;1280;5455294;-72
2024/02/29 19:51:54;;;;;;;54.70;25.10;;;;;;;6.95;96.79;100080.54;127096;1286;114883;-69
2024/02/29 20:04:09;;;;;;;71.80;33.80;;;;;;;6.87;97.43;100065.56;125628;1298;636659;-69
2024/02/29 20:07:51;;;;;;;;;;;;;;;;;;;;;
2024/02/29 20:11:44;;;;;;;79.20;38.00;;;;;;;6.86;98.07;100063.66;127095;1305;114879;-68
2024/02/29 20:15:47;;;;;;;78.80;36.40;;;;;;;6.87;98.13;100062.23;127563;1286;114932;-69
2024/02/29 20:19:35;;;;;;;;;;;;;;;;;;;;;
2024/02/29 20:23:36;;;;;;;;;;;;;;;;;;;;;
2024/02/29 20:27:39;;;;;;;66.00;35.80;;;;;;;6.89;98.83;100055.73;125252;1310;114776;-70
2024/02/29 20:31:31;;;;;;;;;;;;;;;;;;;;;
2024/02/29 20:36:06;;;;;;;72.40;36.90;;;;;;;7.00;99.23;100053.86;125818;1312;638125;-69
2024/02/29 20:40:00;;;;;;;;;;;;;;;;;;;;;
2024/02/29 20:44:03;;;;;;;31.20;16.20;;;;;;;7.07;99.30;100042.42;126574;1296;114830;-69
2024/02/29 20:47:54;;;;;;;;;;;;;;;;;;;;;
2024/02/29 20:51:37;;;;;;;32.40;15.50;;;;;;;7.09;99.23;100042.36;124276;1329;115871;-68
2024/02/29 20:59:46;;;;;;;43.90;22.70;;;;;;;7.10;99.67;100030.41;125569;1303;641705;-70
2024/02/29 21:02:50;;;;;;;66.70;33.60;;;;;;;7.09;99.98;100029.58;128762;1275;127831;-69
2024/02/29 21:10:03;;;;;;;;;;;;;;;;;;;;;
2024/02/29 21:13:58;;;;;;;71.30;34.00;;;;;;;7.15;100.00;100029.12;124419;1284;5358005;-69
2024/02/29 21:17:47;;;;;;;66.60;30.90;;;;;;;7.19;100.00;100022.59;127658;1286;115481;-68
2024/02/29 21:21:35;;;;;;;;;;;;;;;;;;;;;
2024/02/29 21:26:00;;;;;;;;;;;;;;;;;;;;;
2024/02/29 21:29:47;;;;;;;71.80;35.50;;;;;;;7.33;100.00;100014.23;128528;1277;129229;-69
2024/02/29 21:33:20;;;;;;;77.30;35.40;;;;;;;7.35;100.00;100010.61;128059;1278;114804;-69
2024/02/29 21:37:10;;;;;;;75.90;36.30;;;;;;;7.37;100.00;100002.52;127964;1284;114821;-69
2024/02/29 21:40:52;;;;;;;;;;;;;;;;;;;;;
2024/02/29 21:44:30;;;;;;;66.60;33.50;;;;;;;7.42;100.00;99993.59;128339;1296;115225;-70
2024/02/29 21:48:26;;;;;;;60.60;30.00;;;;;;;7.45;100.00;99994.36;127896;1278;114730;-70
2024/02/29 21:52:29;;;;;;;71.80;34.80;;;;;;;7.45;100.00;99989.39;127357;1283;128370;-69
2024/02/29 21:56:19;;;;;;;70.80;34.00;;;;;;;7.45;100.00;99985.63;126112;1292;115041;-69
2024/02/29 22:00:21;;;;;;;46.80;22.30;;;;;;;7.47;100.00;99981.85;126184;1310;115286;-69
2024/02/29 22:03:47;;;;;;;75.10;33.60;;;;;;;7.45;100.00;99978.90;125596;1304;114887;-69
2024/02/29 22:07:47;;;;;;;81.10;36.80;;;;;;;7.44;100.00;99969.72;125330;1310;114932;-69
2024/02/29 22:16:13;;;;;;;66.00;33.80;;;;;;;7.38;100.00;99957.36;126272;1295;638652;-69
2024/02/29 22:20:15;;;;;;;58.70;29.70;;;;;;;7.34;100.00;99957.50;128378;1277;128124;-68
2024/02/29 22:24:14;;;;;;;54.00;27.90;;;;;;;7.32;100.00;99953.85;127286;1288;115168;-69
2024/02/29 22:28:21;;;;;;;64.50;28.70;;;;;;;7.30;100.00;99950.01;123867;1281;5333797;-69
2024/02/29 22:32:19;;;;;;;68.20;32.90;;;;;;;7.27;100.00;99946.23;127769;1283;114894;-68
2024/02/29 22:35:52;;;;;;;70.20;34.90;;;;;;;7.25;100.00;99943.30;127170;1284;114803;-69
2024/02/29 22:39:22;;;;;;;48.50;24.00;;;;;;;7.23;100.00;99941.61;126473;1295;114958;-69
2024/02/29 22:43:15;;;;;;;64.10;29.40;;;;;;;7.22;100.00;99938.13;126415;1295;128855;-69
2024/02/29 22:55:44;;;;;;;66.20;33.70;;;;;;;7.17;100.00;99924.64;126373;1297;638637;-69
2024/02/29 22:59:36;;;;;;;35.00;17.90;;;;;;;7.14;100.00;99918.02;129360;1287;127752;-69
2024/02/29 23:03:29;;;;;;;67.00;32.40;;;;;;;7.13;100.00;99910.77;128928;1269;114908;-68
2024/02/29 23:07:12;;;;;;;;;;;;;;;7.11;100.00;99911.22;126791;1287;5370911;-71
2024/02/29 23:11:16;;;;;;;70.80;32.40;;;;;;;7.06;100.00;99909.64;127790;1303;114852;-70
2024/02/29 23:19:17;;;;;;;59.60;26.60;;;;;;;6.95;100.00;99903.19;125400;1305;129850;-69
2024/02/29 23:27:50;;;;;;;73.70;35.20;;;;;;;6.92;100.00;99894.60;126224;1295;638682;-68
2024/02/29 23:31:52;;;;;;;68.50;34.40;;;;;;;6.88;100.00;99889.79;128209;1281;127801;-69
2024/02/29 23:35:55;;;;;;;;;;;;;;;;;;;;;
2024/02/29 23:39:55;;;;;;;;;;;;;;;;;;;;;
2024/02/29 23:43:47;;;;;;;68.60;33.70;;;;;;;6.88;100.00;99871.85;124816;1313;114978;-70
2024/02/29 23:52:22;;;;;;;71.40;36.90;;;;;;;6.91;100.00;99864.10;126925;1291;637736;-70
2024/02/29 23:56:24;;;;;;;58.20;31.70;;;;;;;6.88;100.00;99860.67;127982;1283;126956;-69
